Time;durP1;ratioP1;P1;durP2;ratioP2;P2;SDS_P1;SDS_P2;PMS_P1;PMS_P2;Temp;Humidity;BMP_temperature;BMP_pressure;BME280_temperature;BME280_humidity;BME280_pressure;Samples;Min_cycle;Max_cycle;Signal;HPM_P1;HPM_P2
2022/01/13 00:02:12;;;;;;;76.28;27.38;;;;;;;4.39;78.84;102156.28;5092652;28;20044;-62
2022/01/13 00:04:39;;;;;;;91.20;24.83;;;;;;;4.40;78.89;102164.97;5093077;28;20055;-63
2022/01/13 00:07:06;;;;;;;70.45;25.85;;;;;;;4.40;78.63;102170.19;5092912;28;20048;-61
2022/01/13 00:09:33;;;;;;;62.45;23.92;;;;;;;4.41;78.75;102179.78;5092757;28;20117;-63
2022/01/13 00:11:59;;;;;;;103.43;27.67;;;;;;;4.40;79.00;102178.00;5092665;28;20044;-63
2022/01/13 00:14:40;;;;;;;79.15;26.77;;;;;;;4.42;78.97;102181.53;5092388;28;20048;-62
2022/01/13 00:17:22;;;;;;;82.68;25.48;;;;;;;4.43;79.05;102180.66;5092742;28;20683;-62
2022/01/13 00:20:47;;;;;;;103.65;26.48;;;;;;;4.42;78.81;102171.94;5092511;28;20052;-59
2022/01/13 00:25:40;;;;;;;101.28;25.15;;;;;;;4.41;78.57;102161.53;5091537;28;20052;-62
2022/01/13 00:28:16;;;;;;;95.93;25.98;;;;;;;4.39;78.80;102171.94;5092476;28;20073;-62
2022/01/13 00:30:44;;;;;;;87.97;24.50;;;;;;;4.37;78.94;102167.56;5092368;28;20381;-59
2022/01/13 00:33:11;;;;;;;75.05;26.23;;;;;;;4.35;78.78;102164.06;5090337;28;20059;-62
2022/01/13 00:35:38;;;;;;;157.90;27.92;;;;;;;4.34;78.93;102163.19;5091784;28;20495;-62
2022/01/13 00:38:04;;;;;;;83.57;24.95;;;;;;;4.33;78.96;102163.19;5091186;28;20052;-62
2022/01/13 00:40:31;;;;;;;117.45;23.48;;;;;;;4.33;79.12;102156.22;5091959;28;20051;-62
2022/01/13 00:42:58;;;;;;;129.55;26.15;;;;;;;4.32;79.16;102146.66;5091927;28;20040;-64
2022/01/13 00:45:24;;;;;;;73.70;21.88;;;;;;;4.30;79.09;102146.66;5091723;28;20476;-61
2022/01/13 00:47:51;;;;;;;101.65;23.35;;;;;;;4.32;79.31;102144.06;5091613;28;20056;-62
2022/01/13 00:50:18;;;;;;;171.07;24.75;;;;;;;4.32;79.30;102140.56;5090887;28;20125;-63
2022/01/13 00:52:44;;;;;;;194.75;26.60;;;;;;;4.33;79.21;102148.41;5089925;28;20044;-62
2022/01/13 00:55:17;;;;;;;126.13;25.60;;;;;;;4.34;78.97;102144.94;5091704;28;20048;-62
2022/01/13 00:57:43;;;;;;;107.00;23.48;;;;;;;4.34;79.13;102151.91;5091441;28;20055;-62
2022/01/13 01:00:10;;;;;;;129.00;24.50;;;;;;;4.34;79.04;102159.72;5091311;28;20132;-63
2022/01/13 01:02:37;;;;;;;105.88;22.10;;;;;;;4.33;78.86;102160.59;5090118;28;20048;-62
2022/01/13 01:05:04;;;;;;;131.13;22.20;;;;;;;4.34;79.43;102162.31;5091698;28;20052;-62
2022/01/13 01:07:31;;;;;;;87.57;20.88;;;;;;;4.34;79.57;102160.56;5091495;28;20488;-61
2022/01/13 01:10:01;;;;;;;78.32;21.23;;;;;;;4.37;79.40;102170.19;5091302;28;20044;-62
2022/01/13 01:12:29;;;;;;;86.60;22.30;;;;;;;4.38;79.48;102171.91;5090063;28;20056;-62
2022/01/13 01:14:58;;;;;;;83.63;21.00;;;;;;;4.37;79.54;102171.03;5091060;28;20052;-61
2022/01/13 01:17:24;;;;;;;159.55;25.05;;;;;;;4.40;78.99;102167.56;5089854;28;20109;-62
2022/01/13 01:19:51;;;;;;;102.00;24.08;;;;;;;4.39;79.12;102166.72;5090981;28;20044;-62
2022/01/13 01:27:31;;;;;;;95.38;21.35;;;;;;;4.40;79.21;102162.34;5090941;28;20124;-62
2022/01/13 01:30:06;;;;;;;94.32;21.08;;;;;;;4.40;79.21;102162.34;5090939;28;20105;-62
2022/01/13 01:32:34;;;;;;;151.75;22.83;;;;;;;4.38;79.02;102159.75;5089816;28;20059;-63
2022/01/13 01:35:03;;;;;;;147.52;23.80;;;;;;;4.38;78.90;102162.34;5089438;28;20048;-63
2022/01/13 01:37:30;;;;;;;83.82;20.20;;;;;;;4.39;79.06;102176.28;5089709;28;20059;-62
2022/01/13 01:39:59;;;;;;;120.30;22.63;;;;;;;4.37;79.14;102178.00;5090553;28;20093;-61
2022/01/13 01:42:27;;;;;;;146.27;21.42;;;;;;;4.38;79.20;102169.31;5090888;28;20106;-62
2022/01/13 01:44:56;;;;;;;196.10;23.92;;;;;;;4.39;79.51;102174.53;5089514;28;20048;-62
2022/01/13 01:47:25;;;;;;;209.27;23.80;;;;;;;4.40;79.52;102168.47;5089487;28;20102;-61
2022/01/13 01:49:57;;;;;;;223.52;27.23;;;;;;;4.40;79.32;102178.91;5089148;28;20067;-62
2022/01/13 01:52:25;;;;;;;186.90;24.15;;;;;;;4.42;79.41;102176.31;5073026;28;20801;-62
2022/01/13 01:54:53;;;;;;;293.35;27.38;;;;;;;4.42;79.43;102178.91;5090547;28;20048;-62
2022/01/13 01:57:21;;;;;;;207.18;23.42;;;;;;;4.42;79.48;102173.69;5089348;28;20498;-63
2022/01/13 01:59:48;;;;;;;169.93;24.33;;;;;;;4.41;79.28;102172.81;5089020;28;20043;-63
2022/01/13 02:02:16;;;;;;;270.73;24.98;;;;;;;4.42;79.36;102171.94;5089196;28;20051;-63
2022/01/13 02:04:43;;;;;;;198.85;24.50;;;;;;;4.42;79.08;102164.13;5090376;28;20458;-62
2022/01/13 02:07:12;;;;;;;226.43;26.33;;;;;;;4.41;79.42;102167.59;5089369;28;20052;-63
2022/01/13 02:09:41;;;;;;;277.95;27.42;;;;;;;4.39;79.08;102171.94;5089131;28;20101;-59
2022/01/13 02:12:14;;;;;;;260.60;27.38;;;;;;;4.39;79.15;102177.16;5089102;28;20044;-62
2022/01/13 02:15:16;;;;;;;379.90;32.80;;;;;;;4.39;79.24;102182.38;5089198;28;20097;-60
2022/01/13 02:17:43;;;;;;;315.35;28.85;;;;;;;4.37;79.40;102175.41;5090212;28;20282;-61
2022/01/13 02:20:19;;;;;;;260.58;26.33;;;;;;;4.36;79.27;102166.69;5088920;28;20113;-62
2022/01/13 02:22:46;;;;;;;245.63;24.17;;;;;;;4.35;79.54;102170.16;5090298;28;20079;-62
2022/01/13 02:25:14;;;;;;;286.55;28.98;;;;;;;4.33;79.29;102161.44;5090525;28;20047;-62
2022/01/13 02:27:42;;;;;;;225.00;24.02;;;;;;;4.33;79.62;102169.25;5090112;28;20570;-62
2022/01/13 02:30:09;;;;;;;199.32;24.13;;;;;;;4.34;79.61;102167.53;5089081;28;20048;-62
2022/01/13 02:32:36;;;;;;;190.70;24.13;;;;;;;4.34;79.68;102170.16;5089242;28;20055;-61
2022/01/13 02:35:03;;;;;;;342.73;31.08;;;;;;;4.35;79.76;102164.06;5090295;28;20051;-62
2022/01/13 02:37:29;;;;;;;219.90;26.55;;;;;;;4.34;79.58;102162.31;5089164;28;20052;-60
2022/01/13 02:39:56;;;;;;;209.82;26.02;;;;;;;4.35;79.65;102164.94;5090015;28;20052;-61
2022/01/13 02:42:22;;;;;;;241.10;24.83;;;;;;;4.35;79.84;102164.94;5089866;28;20189;-62
2022/01/13 02:45:00;;;;;;;229.25;26.05;;;;;;;4.36;79.23;102163.19;5090000;28;20561;-61
2022/01/13 02:50:13;;;;;;;254.30;25.00;;;;;;;4.34;79.47;102152.75;5089772;28;20052;-60
2022/01/13 02:52:40;;;;;;;272.05;28.55;;;;;;;4.33;79.38;102150.16;5088513;28;20056;-61
2022/01/13 02:55:07;;;;;;;296.13;26.73;;;;;;;4.31;79.12;102147.53;5090069;28;20102;-61
2022/01/13 02:57:35;;;;;;;330.55;30.25;;;;;;;4.30;79.33;102157.06;5091855;28;20074;-61
2022/01/13 03:00:03;;;;;;;325.95;31.42;;;;;;;4.29;79.58;102154.44;5093779;28;20389;-62
2022/01/13 03:02:31;;;;;;;287.52;28.67;;;;;;;4.28;79.56;102153.59;5092478;28;20067;-61
2022/01/13 03:04:59;;;;;;;224.73;25.13;;;;;;;4.28;79.66;102155.31;5093790;28;20484;-61
2022/01/13 03:07:27;;;;;;;323.98;29.40;;;;;;;4.27;79.46;102140.53;5092369;28;20491;-61
2022/01/13 03:09:53;;;;;;;274.98;27.90;;;;;;;4.26;79.80;102144.88;5092472;28;20055;-63
2022/01/13 03:12:20;;;;;;;256.48;27.73;;;;;;;4.27;79.50;102144.00;5093471;28;20492;-61
2022/01/13 03:14:46;;;;;;;279.52;28.52;;;;;;;4.25;79.76;102130.09;5093778;28;20113;-61
2022/01/13 03:17:13;;;;;;;276.67;27.48;;;;;;;4.26;79.57;102131.00;5093534;28;20516;-61
2022/01/13 03:19:39;;;;;;;295.23;26.92;;;;;;;4.26;79.99;102131.84;5093246;28;20808;-61
2022/01/13 03:22:06;;;;;;;258.30;27.42;;;;;;;4.26;80.02;102131.84;5093420;28;20047;-62
2022/01/13 03:24:33;;;;;;;272.50;28.70;;;;;;;4.25;79.81;102132.72;5092481;28;20044;-61
2022/01/13 03:27:02;;;;;;;164.88;22.77;;;;;;;4.26;79.92;102131.00;5093755;28;20060;-63
2022/01/13 03:29:30;;;;;;;210.63;24.80;;;;;;;4.26;79.79;102131.84;5093313;28;20052;-62
2022/01/13 03:31:57;;;;;;;227.07;26.40;;;;;;;4.27;79.98;102130.97;5093387;28;20583;-61
2022/01/13 03:34:24;;;;;;;224.68;24.80;;;;;;;4.28;79.84;102119.69;5093390;28;20052;-63
2022/01/13 03:36:50;;;;;;;215.25;24.67;;;;;;;4.28;79.95;102117.09;5092318;28;20056;-61
2022/01/13 03:39:17;;;;;;;191.70;23.70;;;;;;;4.28;79.97;102117.09;5093059;28;20093;-62
2022/01/13 03:41:44;;;;;;;182.00;22.48;;;;;;;4.28;79.98;102117.09;5092998;28;20044;-61
2022/01/13 03:44:18;;;;;;;226.45;25.40;;;;;;;4.28;79.90;102111.88;5092900;28;20109;-63
2022/01/13 03:46:45;;;;;;;253.10;25.02;;;;;;;4.28;79.83;102117.09;5093054;28;20480;-62
2022/01/13 03:49:11;;;;;;;319.38;29.10;;;;;;;4.28;80.05;102109.28;5092559;28;20521;-61
2022/01/13 03:51:50;;;;;;;304.58;28.88;;;;;;;4.24;79.61;102107.50;5092772;28;20074;-62
2022/01/13 03:54:32;;;;;;;256.55;26.67;;;;;;;4.26;79.55;102099.69;5092899;28;20377;-62
2022/01/13 03:57:23;;;;;;;350.58;29.02;;;;;;;4.25;79.46;102096.22;5092928;28;20083;-61
2022/01/13 04:00:30;;;;;;;278.58;24.08;;;;;;;4.25;79.55;102096.22;5091423;28;20056;-63
2022/01/13 04:02:56;;;;;;;211.15;23.17;;;;;;;4.28;80.04;102103.19;5092869;28;20052;-61
2022/01/13 04:05:25;;;;;;;262.38;25.70;;;;;;;4.27;80.21;102094.47;5092697;28;20056;-62
2022/01/13 04:07:52;;;;;;;259.17;26.45;;;;;;;4.28;80.34;102092.75;5092185;28;20048;-63
2022/01/13 04:11:00;;;;;;;339.05;30.10;;;;;;;4.24;79.90;102091.88;5091454;28;20052;-64
2022/01/13 04:16:14;;;;;;;229.00;26.05;;;;;;;4.28;80.20;102098.84;5092334;28;20052;-62
2022/01/13 04:18:41;;;;;;;299.88;27.25;;;;;;;4.27;79.98;102102.28;5091282;28;20048;-63
2022/01/13 04:21:08;;;;;;;318.45;30.38;;;;;;;4.28;80.13;102105.78;5090904;28;20496;-62
2022/01/13 04:23:34;;;;;;;233.65;25.60;;;;;;;4.27;80.10;102097.06;5092125;28;20734;-62
2022/01/13 04:26:05;;;;;;;301.63;29.42;;;;;;;4.27;80.24;102099.69;5092190;28;20051;-61
2022/01/13 04:28:36;;;;;;;268.75;26.65;;;;;;;4.28;80.08;102109.28;5092162;28;20048;-60
2022/01/13 04:31:03;;;;;;;251.63;27.80;;;;;;;4.30;80.46;102106.69;5091746;28;20105;-62
2022/01/13 04:33:32;;;;;;;235.15;23.58;;;;;;;4.31;80.30;102103.22;5092239;28;20526;-62
2022/01/13 04:35:59;;;;;;;266.15;29.08;;;;;;;4.32;80.31;102104.06;5090730;28;20044;-63
2022/01/13 04:38:26;;;;;;;329.75;30.75;;;;;;;4.32;79.98;102088.41;5091000;28;20082;-61
2022/01/13 04:40:58;;;;;;;298.73;27.75;;;;;;;4.33;80.15;102085.81;5090357;28;20048;-61
2022/01/13 04:43:28;;;;;;;390.17;33.55;;;;;;;4.33;80.07;102084.97;5092024;28;20429;-61
2022/01/13 04:45:55;;;;;;;239.88;27.05;;;;;;;4.32;80.19;102089.31;5092100;28;20090;-61
2022/01/13 04:48:22;;;;;;;301.25;28.83;;;;;;;4.32;80.23;102099.72;5091736;28;20044;-62
2022/01/13 04:50:48;;;;;;;234.75;24.95;;;;;;;4.32;80.48;102091.91;5091537;28;20044;-61
2022/01/13 04:53:15;;;;;;;180.45;22.83;;;;;;;4.33;80.40;102103.22;5091782;28;20138;-61
2022/01/13 04:55:50;;;;;;;228.73;26.35;;;;;;;4.33;80.39;102087.56;5091589;28;20063;-63
2022/01/13 04:58:17;;;;;;;281.92;28.13;;;;;;;4.33;80.28;102085.81;5090477;28;20055;-63
2022/01/13 05:00:43;;;;;;;282.02;28.65;;;;;;;4.34;80.25;102090.16;5091567;28;20101;-62
2022/01/13 05:03:10;;;;;;;247.77;26.02;;;;;;;4.34;80.14;102081.50;5091844;28;20105;-62
2022/01/13 05:05:37;;;;;;;308.45;29.50;;;;;;;4.34;80.38;102089.31;5091500;28;20078;-62
2022/01/13 05:08:04;;;;;;;211.52;25.27;;;;;;;4.34;80.23;102084.94;5091406;28;20096;-63
2022/01/13 05:10:31;;;;;;;257.00;28.08;;;;;;;4.34;80.17;102087.56;5091115;28;20052;-61
2022/01/13 05:12:58;;;;;;;303.85;25.73;;;;;;;4.34;80.24;102084.94;5091392;28;20054;-61
2022/01/13 05:15:27;;;;;;;146.57;21.33;;;;;;;4.34;80.47;102082.34;5091153;28;20048;-61
2022/01/13 05:18:09;;;;;;;311.67;28.60;;;;;;;4.35;80.54;102091.06;5091203;28;20131;-61
2022/01/13 05:20:40;;;;;;;309.52;27.20;;;;;;;4.36;80.40;102088.47;5090658;28;21125;-63
2022/01/13 05:23:09;;;;;;;277.77;26.10;;;;;;;4.35;80.16;102091.94;5089936;28;20055;-62
2022/01/13 05:25:36;;;;;;;183.48;22.25;;;;;;;4.37;80.26;102084.13;5090978;28;20446;-62
2022/01/13 05:28:03;;;;;;;242.93;23.67;;;;;;;4.36;80.37;102074.53;5091169;28;20097;-62
2022/01/13 05:30:30;;;;;;;275.70;26.27;;;;;;;4.36;80.33;102075.41;5090815;28;20048;-62
2022/01/13 05:32:56;;;;;;;255.05;24.20;;;;;;;4.37;80.31;102069.34;5089677;28;20052;-62
2022/01/13 05:35:24;;;;;;;322.08;27.58;;;;;;;4.38;80.33;102065.00;5090940;28;20109;-62
2022/01/13 05:37:52;;;;;;;225.45;27.08;;;;;;;4.38;80.16;102065.00;5089829;28;20055;-61
2022/01/13 05:40:20;;;;;;;217.63;25.25;;;;;;;4.37;80.05;102058.06;5089379;28;20163;-62
2022/01/13 05:42:49;;;;;;;252.18;26.20;;;;;;;4.37;80.06;102065.88;5089470;28;20056;-61
2022/01/13 05:45:18;;;;;;;277.27;26.00;;;;;;;4.36;80.17;102058.91;5090491;28;20059;-62
2022/01/13 05:47:47;;;;;;;226.30;23.85;;;;;;;4.35;80.24;102065.88;5090453;28;20044;-62
2022/01/13 05:50:16;;;;;;;213.40;22.45;;;;;;;4.35;80.21;102070.19;5090541;28;20097;-61
2022/01/13 05:52:42;;;;;;;271.15;23.77;;;;;;;4.36;80.36;102061.50;5089491;28;20044;-61
2022/01/13 05:55:10;;;;;;;263.63;25.33;;;;;;;4.36;80.34;102058.91;5090506;28;20077;-62
2022/01/13 05:57:37;;;;;;;216.48;22.67;;;;;;;4.36;80.24;102053.69;5090222;28;20389;-62
2022/01/13 06:00:06;;;;;;;335.20;27.75;;;;;;;4.38;80.47;102059.78;5090014;28;20055;-61
2022/01/13 06:02:33;;;;;;;284.48;25.25;;;;;;;4.39;80.19;102049.38;5089071;28;20052;-63
2022/01/13 06:05:00;;;;;;;318.83;25.95;;;;;;;4.38;79.95;102046.75;5090512;28;20673;-62
2022/01/13 06:07:26;;;;;;;220.35;24.80;;;;;;;4.37;79.82;102032.81;5090645;28;20056;-61
2022/01/13 06:09:53;;;;;;;246.60;23.20;;;;;;;4.36;80.15;102033.69;5090167;28;20530;-62
2022/01/13 06:12:30;;;;;;;362.08;28.45;;;;;;;4.37;80.13;102047.63;5090251;28;20459;-62
2022/01/13 06:14:56;;;;;;;254.75;22.75;;;;;;;4.36;80.25;102043.25;5090143;28;20040;-61
2022/01/13 06:17:23;;;;;;;364.13;28.52;;;;;;;4.36;80.60;102040.63;5090082;28;20554;-64
2022/01/13 06:19:50;;;;;;;318.58;27.60;;;;;;;4.37;80.51;102042.41;5089845;28;20060;-62
2022/01/13 06:22:16;;;;;;;323.30;27.08;;;;;;;4.37;80.42;102045.88;5090141;28;20052;-62
2022/01/13 06:24:43;;;;;;;295.67;26.20;;;;;;;4.37;80.58;102042.41;5090216;28;20052;-62
2022/01/13 06:27:09;;;;;;;343.98;27.48;;;;;;;4.38;80.19;102046.75;5090168;28;20048;-63
2022/01/13 06:29:36;;;;;;;275.42;26.20;;;;;;;4.39;80.20;102048.50;5089890;28;20047;-61
2022/01/13 06:32:02;;;;;;;251.00;23.25;;;;;;;4.40;80.21;102047.63;5088988;28;20047;-62
2022/01/13 06:34:29;;;;;;;315.50;27.20;;;;;;;4.40;80.39;102058.06;5090023;28;20495;-63
2022/01/13 06:36:55;;;;;;;290.63;23.50;;;;;;;4.39;80.38;102062.41;5090076;28;20059;-64
2022/01/13 06:39:22;;;;;;;341.05;26.77;;;;;;;4.41;80.20;102063.28;5089838;28;20059;-62
2022/01/13 06:41:49;;;;;;;418.05;31.33;;;;;;;4.43;80.22;102068.50;5089687;28;20040;-61
2022/01/13 06:44:16;;;;;;;391.27;28.15;;;;;;;4.44;80.29;102065.03;5089500;28;20048;-62
2022/01/13 06:46:42;;;;;;;338.58;27.48;;;;;;;4.45;80.16;102065.91;5089451;28;20059;-63
2022/01/13 06:49:09;;;;;;;366.45;29.23;;;;;;;4.42;80.01;102062.41;5087651;28;20105;-61
2022/01/13 06:51:35;;;;;;;333.58;26.67;;;;;;;4.43;79.72;102073.72;5089757;28;20051;-60
2022/01/13 06:54:02;;;;;;;341.02;25.05;;;;;;;4.42;80.14;102072.00;5089333;28;20044;-63
2022/01/13 06:56:29;;;;;;;302.85;24.55;;;;;;;4.40;80.11;102071.97;5089660;28;20097;-61
2022/01/13 06:58:56;;;;;;;215.93;21.15;;;;;;;4.42;80.20;102079.81;5089791;28;20052;-63
2022/01/13 07:01:23;;;;;;;310.15;25.33;;;;;;;4.42;80.50;102070.22;5089499;28;20044;-61
2022/01/13 07:03:50;;;;;;;238.75;22.48;;;;;;;4.44;80.38;102072.84;5088630;28;20051;-64
2022/01/13 07:06:17;;;;;;;257.67;24.88;;;;;;;4.46;80.48;102072.88;5089715;28;20052;-62
2022/01/13 07:08:44;;;;;;;330.65;28.13;;;;;;;4.48;80.17;102069.41;5089796;28;20488;-62
2022/01/13 07:11:10;;;;;;;342.27;28.50;;;;;;;4.48;80.19;102069.41;5089088;28;20056;-62
2022/01/13 07:13:37;;;;;;;402.90;29.70;;;;;;;4.49;79.88;102072.91;5089368;28;20101;-63
2022/01/13 07:16:04;;;;;;;353.63;28.83;;;;;;;4.47;79.54;102082.44;5089614;28;20056;-62
2022/01/13 07:18:38;;;;;;;391.17;31.60;;;;;;;4.43;79.47;102079.81;5089837;28;20052;-62
2022/01/13 07:21:15;;;;;;;408.20;32.60;;;;;;;4.42;79.54;102082.41;5088060;28;20075;-61
2022/01/13 07:23:42;;;;;;;330.85;29.13;;;;;;;4.41;79.78;102089.34;5088121;28;20044;-61
2022/01/13 07:26:09;;;;;;;291.48;26.77;;;;;;;4.39;79.91;102079.78;5088444;28;20051;-62
2022/01/13 07:28:36;;;;;;;268.45;25.40;;;;;;;4.37;79.94;102084.97;5089478;28;20504;-61
2022/01/13 07:31:02;;;;;;;314.67;25.65;;;;;;;4.36;79.89;102093.69;5089403;28;20129;-61
2022/01/13 07:33:29;;;;;;;300.80;27.80;;;;;;;4.37;79.86;102094.56;5089458;28;20048;-67
2022/01/13 07:35:56;;;;;;;306.02;26.65;;;;;;;4.37;80.07;102091.94;5089506;28;20101;-62
2022/01/13 07:38:22;;;;;;;314.42;27.25;;;;;;;4.37;80.13;102100.63;5089338;28;20416;-63
2022/01/13 07:40:50;;;;;;;255.75;27.15;;;;;;;4.39;80.30;102103.25;5089116;28;20557;-64
2022/01/13 07:43:22;;;;;;;383.45;30.23;;;;;;;4.40;80.21;102105.00;5090489;28;20055;-63
2022/01/13 07:45:50;;;;;;;348.43;29.87;;;;;;;4.41;80.21;102102.41;5092937;28;20052;-64
2022/01/13 07:48:16;;;;;;;388.30;33.38;;;;;;;4.42;80.20;102108.50;5091414;28;20538;-64
2022/01/13 07:50:43;;;;;;;342.90;27.30;;;;;;;4.41;80.16;102115.44;5092562;28;20129;-61
2022/01/13 07:53:10;;;;;;;283.88;24.38;;;;;;;4.43;80.10;102113.72;5093056;28;20454;-62
2022/01/13 07:55:37;;;;;;;398.98;29.10;;;;;;;4.43;80.45;102115.44;5091736;28;20059;-61
2022/01/13 07:58:04;;;;;;;365.38;29.38;;;;;;;4.43;80.24;102116.34;5092637;28;20093;-63
2022/01/13 08:00:31;;;;;;;432.40;32.25;;;;;;;4.44;80.05;102114.56;5092539;28;20496;-62
2022/01/13 08:02:57;;;;;;;386.20;31.92;;;;;;;4.44;80.28;102111.97;5092215;28;20686;-62
2022/01/13 08:05:24;;;;;;;424.48;32.83;;;;;;;4.46;79.94;102118.09;5092546;28;20052;-63
2022/01/13 08:07:50;;;;;;;370.40;28.85;;;;;;;4.46;80.33;102123.31;5092746;28;20056;-63
2022/01/13 08:10:17;;;;;;;399.52;30.60;;;;;;;4.46;80.30;102125.91;5092435;28;20052;-63
2022/01/13 08:12:43;;;;;;;379.65;28.45;;;;;;;4.46;80.38;102120.69;5092564;28;20137;-62
2022/01/13 08:15:14;;;;;;;228.95;24.17;;;;;;;4.47;80.55;102127.66;5092416;28;20097;-62
2022/01/13 08:20:28;;;;;;;301.95;27.15;;;;;;;4.52;80.59;102131.16;5092436;28;20048;-62
2022/01/13 08:22:55;;;;;;;225.25;22.48;;;;;;;4.54;80.50;102131.16;5092341;28;20105;-61
2022/01/13 08:25:23;;;;;;;377.90;27.00;;;;;;;4.55;80.49;102136.41;5091174;28;20056;-63
2022/01/13 08:27:49;;;;;;;348.10;28.88;;;;;;;4.56;80.24;102132.94;5091017;28;20060;-61
2022/01/13 08:30:16;;;;;;;291.85;26.73;;;;;;;4.59;80.10;102132.06;5092077;28;20488;-63
2022/01/13 08:32:43;;;;;;;358.42;29.40;;;;;;;4.59;80.30;102126.84;5091025;28;20056;-63
2022/01/13 08:35:11;;;;;;;362.33;29.45;;;;;;;4.59;80.28;102124.25;5092205;28;20113;-62
2022/01/13 08:37:37;;;;;;;249.40;24.45;;;;;;;4.60;80.42;102125.97;5092085;28;20070;-62
2022/01/13 08:40:08;;;;;;;318.60;28.48;;;;;;;4.60;80.28;102125.13;5091861;28;20052;-62
2022/01/13 08:42:35;;;;;;;286.20;26.75;;;;;;;4.60;80.01;102125.97;5090555;28;20640;-63
2022/01/13 08:45:05;;;;;;;302.83;26.13;;;;;;;4.60;80.24;102127.75;5090495;28;20044;-64
2022/01/13 08:47:32;;;;;;;284.92;26.60;;;;;;;4.62;80.44;102120.78;5090752;28;20052;-62
2022/01/13 08:49:59;;;;;;;250.43;26.17;;;;;;;4.63;80.59;102130.38;5091759;28;20040;-63
2022/01/13 08:52:26;;;;;;;303.90;27.27;;;;;;;4.64;80.23;102135.56;5091849;28;20048;-64
2022/01/13 08:54:55;;;;;;;275.00;27.52;;;;;;;4.66;80.41;102138.19;5089814;28;20454;-65
2022/01/13 08:57:23;;;;;;;293.48;24.48;;;;;;;4.66;80.52;102140.81;5091800;28;20101;-62
2022/01/13 08:59:49;;;;;;;249.02;24.95;;;;;;;4.70;80.60;102142.56;5090304;28;20109;-62
2022/01/13 09:02:17;;;;;;;248.93;26.92;;;;;;;4.72;80.65;102138.25;5091713;28;20129;-63
2022/01/13 09:04:43;;;;;;;262.80;25.00;;;;;;;4.74;80.66;102153.91;5091592;28;20051;-69
2022/01/13 09:07:10;;;;;;;209.13;23.27;;;;;;;4.77;80.32;102162.63;5091333;28;20556;-62
2022/01/13 09:09:57;;;;;;;247.05;22.75;;;;;;;4.77;80.10;102157.41;5091360;28;20138;-70
2022/01/13 09:12:25;;;;;;;308.08;25.30;;;;;;;4.79;80.20;102166.09;5090194;28;20048;-69
2022/01/13 09:14:58;;;;;;;224.65;22.98;;;;;;;4.80;80.65;102162.66;5091753;28;20105;-63
2022/01/13 09:17:25;;;;;;;;;;;;;;;4.81;79.38;102164.41;5090560;28;20044;-63
2022/01/13 09:19:51;;;;;;;213.55;19.83;;;;;;;4.87;80.25;102167.91;5091040;28;20322;-65
2022/01/13 09:22:19;;;;;;;155.85;21.08;;;;;;;4.87;80.47;102167.91;5091011;28;20109;-62
2022/01/13 09:24:45;;;;;;;236.80;22.67;;;;;;;4.87;80.39;102165.28;5090046;28;20459;-62
2022/01/13 09:27:12;;;;;;;229.18;22.35;;;;;;;4.88;80.52;102165.31;5090050;28;20105;-62
2022/01/13 09:29:39;;;;;;;273.08;22.20;;;;;;;4.89;80.26;102164.44;5089793;28;20048;-62
2022/01/13 09:32:06;;;;;;;351.52;27.08;;;;;;;4.91;80.16;102164.44;5091016;28;20043;-64
2022/01/13 09:34:33;;;;;;;319.42;24.35;;;;;;;4.91;79.81;102159.22;5090947;28;20052;-62
2022/01/13 09:36:59;;;;;;;215.02;23.23;;;;;;;4.89;79.63;102151.38;5090781;28;20094;-63
2022/01/13 09:39:26;;;;;;;309.45;22.00;;;;;;;4.87;79.64;102147.03;5090824;28;20052;-63
2022/01/13 09:41:56;;;;;;;241.98;21.33;;;;;;;4.84;79.47;102140.06;5090821;28;20056;-62
2022/01/13 09:44:27;;;;;;;307.25;24.02;;;;;;;4.82;79.55;102134.81;5089419;28;20051;-62
2022/01/13 09:46:54;;;;;;;272.83;22.38;;;;;;;4.81;79.90;102133.09;5089486;28;20097;-64
2022/01/13 09:49:21;;;;;;;216.38;19.52;;;;;;;4.81;79.99;102134.81;5090704;28;20051;-62
2022/01/13 09:51:47;;;;;;;170.80;18.77;;;;;;;4.80;79.87;102126.13;5089127;28;20044;-63
2022/01/13 09:54:16;;;;;;;228.32;17.90;;;;;;;4.80;80.07;102130.47;5090543;28;20048;-64
2022/01/13 09:56:44;;;;;;;249.02;23.15;;;;;;;4.79;80.02;102140.00;5090206;28;20504;-63
2022/01/13 09:59:10;;;;;;;210.93;18.42;;;;;;;4.79;80.07;102128.72;5090098;28;20058;-66
2022/01/13 10:01:37;;;;;;;214.65;21.25;;;;;;;4.79;80.03;102128.72;5090324;28;20048;-62
2022/01/13 10:04:04;;;;;;;326.45;25.23;;;;;;;4.79;80.18;102128.72;5090236;28;20101;-63
2022/01/13 10:06:41;;;;;;;372.60;27.55;;;;;;;4.76;79.83;102119.16;5087689;28;20500;-63
2022/01/13 10:09:08;;;;;;;300.42;24.90;;;;;;;4.79;80.13;102115.69;5090024;28;20054;-63
2022/01/13 10:11:40;;;;;;;341.23;24.58;;;;;;;4.77;80.15;102115.66;5090051;28;20585;-65
2022/01/13 10:16:59;;;;;;;403.50;30.17;;;;;;;4.78;80.04;102122.63;5090371;28;20359;-63
2022/01/13 10:19:25;;;;;;;282.90;22.45;;;;;;;4.81;80.49;102122.66;5088867;28;20044;-63
2022/01/13 10:21:58;;;;;;;400.05;29.48;;;;;;;4.80;80.32;102131.34;5089921;28;20488;-63
2022/01/13 10:24:28;;;;;;;395.83;30.45;;;;;;;4.82;80.51;102132.22;5090006;28;20048;-63
2022/01/13 10:27:05;;;;;;;367.55;26.50;;;;;;;4.82;80.05;102129.59;5089984;28;20116;-64
2022/01/13 10:29:39;;;;;;;301.33;23.85;;;;;;;4.82;79.93;102128.72;5089965;28;20052;-63
2022/01/13 10:32:07;;;;;;;374.00;27.42;;;;;;;4.86;80.32;102134.84;5089826;28;20059;-63
2022/01/13 10:34:36;;;;;;;308.60;26.17;;;;;;;4.83;80.12;102131.34;5088732;28;20121;-63
2022/01/13 10:37:10;;;;;;;373.00;25.70;;;;;;;4.85;80.21;102130.50;5088593;28;20415;-64
2022/01/13 10:39:59;;;;;;;258.42;20.48;;;;;;;4.78;79.15;102127.84;5088304;28;20097;-63
2022/01/13 10:45:26;;;;;;;212.13;18.75;;;;;;;4.79;79.75;102126.97;5089888;28;20051;-63
2022/01/13 10:48:03;;;;;;;211.25;20.23;;;;;;;4.78;79.80;102119.13;5089799;28;20101;-62
2022/01/13 10:50:39;;;;;;;275.67;22.05;;;;;;;4.79;80.33;102126.97;5088602;28;20044;-66
2022/01/13 10:53:10;;;;;;;297.63;25.00;;;;;;;4.80;80.49;102120.03;5089990;28;20075;-65
2022/01/13 10:55:41;;;;;;;303.58;23.92;;;;;;;4.81;80.46;102116.53;5088569;28;20055;-62
2022/01/13 10:58:11;;;;;;;376.77;25.73;;;;;;;4.82;80.40;102124.38;5088495;28;20048;-62
2022/01/13 11:00:37;;;;;;;273.35;21.13;;;;;;;4.85;80.73;102117.44;5088766;28;20056;-63
2022/01/13 11:03:10;;;;;;;376.33;27.90;;;;;;;4.83;80.36;102110.47;5089980;28;20079;-62
2022/01/13 11:05:44;;;;;;;373.58;27.00;;;;;;;4.86;80.41;102088.72;5089853;28;20429;-62
2022/01/13 11:08:11;;;;;;;307.63;22.55;;;;;;;4.89;80.53;102095.69;5088346;28;20055;-63
2022/01/13 11:10:46;;;;;;;299.10;26.35;;;;;;;4.90;80.32;102089.63;5089380;28;20056;-64
2022/01/13 11:13:17;;;;;;;219.20;22.05;;;;;;;4.90;80.29;102095.69;5089698;28;20056;-63
2022/01/13 11:15:49;;;;;;;115.80;17.13;;;;;;;4.91;80.58;102092.25;5088186;28;20477;-63
2022/01/13 11:18:19;;;;;;;200.70;21.02;;;;;;;4.92;80.89;102095.72;5089627;28;20106;-64
2022/01/13 11:20:48;;;;;;;158.32;20.00;;;;;;;4.95;80.71;102093.13;5093175;28;20056;-63
2022/01/13 11:23:16;;;;;;;259.45;23.55;;;;;;;4.97;80.83;102090.53;5091919;28;20409;-65
2022/01/13 11:25:47;;;;;;;329.55;25.83;;;;;;;4.99;80.78;102081.84;5093663;28;20458;-62
2022/01/13 11:28:15;;;;;;;363.42;26.30;;;;;;;5.01;80.75;102090.53;5093499;28;20047;-64
2022/01/13 11:30:42;;;;;;;299.70;23.80;;;;;;;5.01;80.76;102084.47;5093119;28;20059;-62
2022/01/13 11:33:09;;;;;;;320.20;25.27;;;;;;;5.04;80.48;102085.34;5091841;28;20048;-62
2022/01/13 11:35:48;;;;;;;349.83;24.67;;;;;;;5.04;80.59;102082.72;5093146;28;20048;-64
2022/01/13 11:38:17;;;;;;;386.77;23.60;;;;;;;5.06;80.50;102081.00;5092959;28;20044;-63
2022/01/13 11:40:46;;;;;;;335.80;24.20;;;;;;;5.06;80.43;102088.84;5091460;28;20044;-62